createdAt,value
2023-09-08T00:04:15.497Z,14.16
2023-09-08T00:09:17.687Z,14.10
2023-09-08T00:14:19.467Z,14.04
2023-09-08T00:19:21.852Z,13.98
2023-09-08T00:24:23.840Z,13.92
2023-09-08T00:29:25.773Z,13.86
2023-09-08T00:34:27.788Z,13.83
2023-09-08T00:39:29.769Z,13.82
2023-09-08T00:44:31.749Z,13.80
2023-09-08T00:49:33.930Z,13.78
2023-09-08T00:54:36.326Z,13.78
2023-09-08T00:59:38.811Z,13.79
2023-09-08T01:04:42.701Z,13.82
2023-09-08T01:09:46.438Z,13.82
2023-09-08T01:14:48.468Z,13.78
2023-09-08T01:19:55.742Z,13.72
2023-09-08T01:25:13.117Z,13.68
2023-09-08T01:30:16.094Z,13.66
2023-09-08T01:35:18.368Z,13.62
2023-09-08T01:40:20.353Z,13.56
2023-09-08T01:45:22.284Z,13.48
2023-09-08T01:50:25.548Z,13.39
2023-09-08T01:55:27.728Z,13.30
2023-09-08T02:00:29.609Z,13.23
2023-09-08T02:05:32.033Z,13.17
2023-09-08T02:10:34.022Z,13.14
2023-09-08T02:15:37.618Z,13.13
2023-09-08T02:20:39.670Z,13.11
2023-09-08T02:25:41.541Z,13.04
2023-09-08T02:30:43.620Z,12.97
2023-09-08T02:35:45.546Z,12.90
2023-09-08T02:40:47.482Z,12.83
2023-09-08T02:45:49.465Z,12.76
2023-09-08T02:50:51.441Z,12.69
2023-09-08T02:55:53.833Z,12.67
2023-09-08T03:00:56.017Z,12.68
2023-09-08T03:06:01.165Z,12.68
2023-09-08T03:11:05.077Z,12.66
2023-09-08T03:16:08.983Z,12.66
2023-09-08T03:21:14.271Z,12.66
2023-09-08T03:26:16.257Z,12.63
2023-09-08T03:31:18.931Z,12.57
2023-09-08T03:36:21.068Z,12.50
2023-09-08T03:41:22.912Z,12.47
2023-09-08T03:46:26.065Z,12.45
2023-09-08T03:51:29.016Z,12.42
2023-09-08T03:56:31.479Z,12.37
2023-09-08T04:01:33.618Z,12.32
2023-09-08T04:06:35.469Z,12.28
2023-09-08T04:11:37.451Z,12.27
2023-09-08T04:16:39.316Z,12.29
2023-09-08T04:21:42.123Z,12.33
2023-09-08T04:26:43.896Z,12.37
2023-09-08T04:31:45.707Z,12.43
2023-09-08T04:36:47.978Z,12.54
2023-09-08T04:41:49.940Z,12.77
2023-09-08T04:46:52.974Z,13.28
2023-09-08T04:51:54.714Z,14.34
2023-09-08T04:57:04.045Z,15.49
2023-09-08T05:02:14.145Z,15.94
2023-09-08T05:07:16.640Z,16.25
2023-09-08T05:12:18.507Z,17.47
2023-09-08T05:17:20.386Z,19.69
2023-09-08T05:22:22.624Z,21.94
2023-09-08T05:27:25.005Z,24.08
2023-09-08T05:32:27.003Z,26.00
2023-09-08T05:37:29.020Z,27.46
2023-09-08T05:42:31.304Z,28.14
2023-09-08T05:47:33.425Z,29.28
2023-09-08T05:52:35.419Z,29.89
2023-09-08T05:57:37.860Z,30.53
2023-09-08T06:02:40.180Z,31.51
2023-09-08T06:07:50.934Z,31.83
2023-09-08T06:12:59.359Z,31.94
2023-09-08T06:18:01.116Z,32.84
2023-09-08T06:23:03.424Z,34.02
2023-09-08T06:28:05.910Z,34.59
2023-09-08T06:33:09.281Z,35.67
2023-09-08T06:38:11.618Z,36.86
2023-09-08T06:43:13.592Z,37.84
2023-09-08T06:48:16.441Z,39.13
2023-09-08T06:53:18.677Z,40.05
2023-09-08T06:58:20.865Z,40.82
2023-09-08T07:03:23.789Z,41.85
2023-09-08T07:08:26.049Z,42.79
2023-09-08T07:13:28.117Z,43.80
2023-09-08T07:18:33.471Z,44.27
2023-09-08T07:23:37.517Z,44.54
2023-09-08T07:28:40.214Z,44.72
2023-09-08T07:33:42.293Z,45.24
2023-09-08T07:38:44.277Z,45.87
2023-09-08T07:43:46.357Z,46.23
2023-09-08T07:48:48.444Z,46.58
2023-09-08T07:53:50.356Z,46.99
2023-09-08T07:58:53.017Z,47.48
2023-09-08T08:03:54.968Z,47.75
2023-09-08T08:08:57.116Z,47.87
2023-09-08T08:13:59.050Z,47.90
2023-09-08T08:19:01.170Z,48.16
2023-09-08T08:24:03.705Z,48.44
2023-09-08T08:29:05.723Z,48.50
2023-09-08T08:34:09.655Z,48.56
2023-09-08T08:39:11.715Z,48.66
2023-09-08T08:44:16.253Z,48.49
2023-09-08T08:49:20.289Z,48.05
2023-09-08T08:54:22.629Z,47.98
2023-09-08T08:59:25.059Z,48.03
2023-09-08T09:04:27.876Z,47.93
2023-09-08T09:09:29.778Z,48.10
2023-09-08T09:14:35.673Z,48.33
2023-09-08T09:19:37.992Z,48.42
2023-09-08T09:24:43.988Z,48.20
2023-09-08T09:29:50.866Z,47.91
2023-09-08T09:34:54.288Z,47.50
2023-09-08T09:39:56.341Z,47.17
2023-09-08T09:45:01.028Z,46.53
2023-09-08T09:50:03.596Z,45.44
2023-09-08T09:55:06.289Z,44.56
2023-09-08T10:00:09.848Z,44.02
2023-09-08T10:05:15.371Z,43.40
2023-09-08T10:10:18.681Z,41.82
2023-09-08T10:15:23.639Z,39.80
2023-09-08T10:20:27.083Z,37.92
2023-09-08T10:25:32.402Z,36.44
2023-09-08T10:30:35.093Z,35.19
2023-09-08T10:35:37.180Z,34.16
2023-09-08T10:40:40.194Z,33.23
2023-09-08T10:45:43.006Z,32.55
2023-09-08T10:50:45.265Z,31.90
2023-09-08T10:55:56.808Z,31.31
2023-09-08T11:01:13.185Z,30.85
2023-09-08T11:06:18.983Z,30.45
2023-09-08T11:11:21.224Z,30.20
2023-09-08T11:16:30.108Z,30.03
2023-09-08T11:21:37.038Z,29.94
2023-09-08T11:26:39.162Z,29.83
2023-09-08T11:31:42.589Z,29.77
2023-09-08T11:36:44.477Z,29.70
2023-09-08T11:41:46.355Z,29.58
2023-09-08T11:46:50.138Z,29.52
2023-09-08T11:51:52.061Z,29.48
2023-09-08T11:56:54.837Z,29.42
2023-09-08T12:01:57.918Z,29.28
2023-09-08T12:07:00.345Z,29.20
2023-09-08T12:12:04.036Z,29.15
2023-09-08T12:17:09.685Z,29.16
2023-09-08T12:22:13.484Z,29.13
2023-09-08T12:27:17.507Z,29.00
2023-09-08T12:32:20.931Z,28.88
2023-09-08T12:37:24.381Z,28.79
2023-09-08T12:42:26.984Z,28.74
2023-09-08T12:47:29.589Z,28.61
2023-09-08T12:52:32.621Z,28.43
2023-09-08T12:57:36.321Z,28.37
2023-09-08T13:02:38.938Z,28.39
2023-09-08T13:07:41.482Z,28.39
2023-09-08T13:12:47.700Z,28.37
2023-09-08T13:17:49.685Z,28.30
2023-09-08T13:22:51.649Z,28.28
2023-09-08T13:27:53.543Z,28.24
2023-09-08T13:32:56.765Z,28.20
2023-09-08T13:38:00.757Z,28.14
2023-09-08T13:43:03.342Z,28.07
2023-09-08T13:48:07.477Z,28.01
2023-09-08T13:53:10.044Z,27.97
2023-09-08T13:58:12.789Z,27.91
2023-09-08T14:03:19.691Z,27.90
2023-09-08T14:13:29.227Z,27.71
2023-09-08T14:18:31.425Z,27.63
2023-09-08T14:23:35.180Z,27.58
2023-09-08T14:28:37.325Z,27.49
2023-09-08T14:33:39.151Z,27.39
2023-09-08T14:38:41.501Z,27.28
2023-09-08T14:43:43.254Z,27.16
2023-09-08T14:48:45.288Z,27.06
2023-09-08T14:53:47.862Z,26.97
2023-09-08T14:58:50.438Z,26.88
2023-09-08T15:03:52.389Z,26.77
2023-09-08T15:08:54.853Z,26.65
2023-09-08T15:13:56.972Z,26.51
2023-09-08T15:18:58.960Z,26.39
2023-09-08T15:24:02.472Z,26.30
2023-09-08T15:29:05.989Z,26.22
2023-09-08T15:34:08.585Z,26.15
2023-09-08T15:39:10.507Z,26.07
2023-09-08T15:44:12.345Z,25.96
2023-09-08T15:49:14.269Z,25.82
2023-09-08T15:54:17.036Z,25.68
2023-09-08T15:59:19.249Z,25.51
2023-09-08T16:04:21.735Z,25.35
2023-09-08T16:09:23.881Z,25.19
2023-09-08T16:14:26.392Z,25.02
2023-09-08T16:19:29.477Z,24.86
2023-09-08T16:24:32.835Z,24.66
2023-09-08T16:29:35.178Z,24.47
2023-09-08T16:34:37.322Z,24.28
2023-09-08T16:39:39.981Z,24.05
2023-09-08T16:44:44.297Z,23.82
2023-09-08T16:49:47.759Z,23.58
2023-09-08T16:54:50.907Z,23.30
2023-09-08T16:59:53.439Z,23.01
2023-09-08T17:04:55.680Z,22.74
2023-09-08T17:09:58.074Z,22.47
2023-09-08T17:15:00.172Z,22.20
2023-09-08T17:20:03.413Z,21.94
2023-09-08T17:25:07.389Z,21.68
2023-09-08T17:30:11.258Z,21.41
2023-09-08T17:35:13.190Z,21.16
2023-09-08T17:40:15.068Z,20.91
2023-09-08T17:45:17.459Z,20.68
2023-09-08T17:50:19.846Z,20.47
2023-09-08T17:55:21.730Z,20.27
2023-09-08T18:00:23.611Z,20.07
2023-09-08T18:05:26.849Z,19.84
2023-09-08T18:10:29.012Z,19.59
2023-09-08T18:15:31.318Z,19.33
2023-09-08T18:20:36.436Z,19.07
2023-09-08T18:25:38.545Z,18.84
2023-09-08T18:30:45.311Z,18.63
2023-09-08T18:35:47.287Z,18.50
2023-09-08T18:40:49.173Z,18.37
2023-09-08T18:45:51.967Z,18.22
2023-09-08T18:50:54.455Z,18.07
2023-09-08T18:55:56.846Z,17.91
2023-09-08T19:01:03.270Z,17.75
2023-09-08T19:06:05.718Z,17.59
2023-09-08T19:11:07.879Z,17.43
2023-09-08T19:16:10.426Z,17.27
2023-09-08T19:21:14.015Z,17.11
2023-09-08T19:26:16.924Z,16.96
2023-09-08T19:31:19.343Z,16.82
2023-09-08T19:36:21.589Z,16.70
2023-09-08T19:41:25.071Z,16.59
2023-09-08T19:46:28.141Z,16.50
2023-09-08T19:51:31.323Z,16.41
2023-09-08T19:56:34.012Z,16.34
2023-09-08T20:01:36.897Z,16.29
2023-09-08T20:06:39.612Z,16.22
2023-09-08T20:11:43.357Z,16.17
2023-09-08T20:16:45.558Z,16.08
2023-09-08T20:21:47.706Z,15.96
2023-09-08T20:26:50.503Z,15.84
2023-09-08T20:31:56.002Z,15.72
2023-09-08T20:36:58.350Z,15.62
2023-09-08T20:42:00.845Z,15.50
2023-09-08T20:47:03.237Z,15.40
2023-09-08T20:52:05.937Z,15.28
2023-09-08T20:57:07.814Z,15.19
2023-09-08T21:02:09.901Z,15.12
2023-09-08T21:07:11.764Z,15.05
2023-09-08T21:12:14.173Z,15.01
2023-09-08T21:17:16.139Z,14.97
2023-09-08T21:22:18.012Z,14.95
2023-09-08T21:27:19.885Z,14.92
2023-09-08T21:32:24.534Z,14.91
2023-09-08T21:37:26.302Z,14.94
2023-09-08T21:42:28.184Z,14.93
2023-09-08T21:47:31.201Z,14.94
2023-09-08T21:52:38.455Z,14.94
2023-09-08T21:57:41.704Z,14.91
2023-09-08T22:02:44.150Z,14.87
2023-09-08T22:07:46.270Z,14.84
2023-09-08T22:12:48.741Z,14.79
2023-09-08T22:17:51.177Z,14.73
2023-09-08T22:22:53.640Z,14.68
2023-09-08T22:27:59.000Z,14.61
2023-09-08T22:33:01.488Z,14.51
2023-09-08T22:38:04.094Z,14.42
2023-09-08T22:43:05.961Z,14.33
2023-09-08T22:48:07.787Z,14.30
2023-09-08T22:53:11.045Z,14.26
2023-09-08T22:58:16.161Z,14.22
2023-09-08T23:03:18.271Z,14.18
2023-09-08T23:08:20.775Z,14.14
2023-09-08T23:13:22.960Z,14.08
2023-09-08T23:18:25.006Z,14.07
2023-09-08T23:23:27.018Z,14.07
2023-09-08T23:28:29.001Z,14.05
2023-09-08T23:33:33.112Z,14.01
2023-09-08T23:38:35.211Z,14.04
2023-09-08T23:43:37.609Z,14.08
2023-09-08T23:48:39.991Z,14.10
2023-09-08T23:53:41.863Z,14.07
2023-09-08T23:58:43.638Z,14.02
